LSZS/SMV METAR and TAF weather

Enter ICAO airport designator
Station Type Date Time Source
LSZS METAR 2021/01/22 07:20 UTC NOAA

LSZS 220720Z 14005KT 9999 FEW010 BKN052 M01/M02 Q1001 R03/390093 RMK B TL180


Station Type Date Time Source
LSZS Decoded METAR 2021/01/22 07:20 UTC NOAA

Station name not available
Jan 22, 2021 - 02:20 AM EST / 2021.01.22 0720 UTC
Wind: from the SE (140 degrees) at 6 MPH (5 KT):0
Visibility: greater than 7 mile(s):0
Sky conditions: mostly cloudy
Temperature: 30 F (-1 C)
Windchill: 23 F (-5 C):1
Dew Point: 28 F (-2 C)
Relative Humidity: 92%
Pressure (altimeter): 29.56 in. Hg (1001 hPa)
ob: LSZS 220720Z 14005KT 9999 FEW010 BKN052 M01/M02 Q1001 R03/390093 RMK B TL180
cycle: 7

Station Type Date Time Source
LSZS TAF 2014/12/22 20:03 UTC NOAA

TAF
AMD LSZS 222054Z 2220/2224 CNL

Example: see airport list